sensor_id;sensor_type;location;lat;lon;timestamp;pressure;altitude;pressure_sealevel;temperature;humidity
6938;BME280;40040;42.706;23.372;2023-01-29T00:01:11;144317.25;;;0.51;100.00
6938;BME280;40040;42.706;23.372;2023-01-29T00:03:39;144309.94;;;0.48;100.00
6938;BME280;40040;42.706;23.372;2023-01-29T00:06:07;144314.84;;;0.50;100.00
6938;BME280;40040;42.706;23.372;2023-01-29T00:08:34;144322.16;;;0.53;100.00
6938;BME280;40040;42.706;23.372;2023-01-29T00:11:04;144280.59;;;0.36;100.00
6938;BME280;40040;42.706;23.372;2023-01-29T00:13:31;144336.88;;;0.59;100.00
6938;BME280;40040;42.706;23.372;2023-01-29T00:15:59;144329.53;;;0.56;100.00
6938;BME280;40040;42.706;23.372;2023-01-29T00:18:27;144323.41;;;0.53;100.00
6938;BME280;40040;42.706;23.372;2023-01-29T00:20:54;144327.06;;;0.55;100.00
6938;BME280;40040;42.706;23.372;2023-01-29T00:23:22;144261.03;;;0.28;100.00
6938;BME280;40040;42.706;23.372;2023-01-29T00:25:51;144306.28;;;0.46;100.00
6938;BME280;40040;42.706;23.372;2023-01-29T00:28:19;144314.84;;;0.50;100.00
6938;BME280;40040;42.706;23.372;2023-01-29T00:30:46;144335.63;;;0.58;100.00
6938;BME280;40040;42.706;23.372;2023-01-29T00:33:12;144325.81;;;0.54;100.00
6938;BME280;40040;42.706;23.372;2023-01-29T00:35:39;144317.25;;;0.51;100.00
6938;BME280;40040;42.706;23.372;2023-01-29T00:38:06;144276.91;;;0.34;100.00
6938;BME280;40040;42.706;23.372;2023-01-29T00:40:36;144331.97;;;0.57;100.00
6938;BME280;40040;42.706;23.372;2023-01-29T00:43:19;144323.41;;;0.53;100.00
6938;BME280;40040;42.706;23.372;2023-01-29T00:46:03;144278.16;;;0.35;100.00
6938;BME280;40040;42.706;23.372;2023-01-29T00:48:32;144313.59;;;0.49;100.00
6938;BME280;40040;42.706;23.372;2023-01-29T00:50:59;144312.41;;;0.49;100.00
6938;BME280;40040;42.706;23.372;2023-01-29T00:53:25;144301.38;;;0.44;100.00
6938;BME280;40040;42.706;23.372;2023-01-29T00:55:52;144221.88;;;0.12;100.00
6938;BME280;40040;42.706;23.372;2023-01-29T00:58:20;144278.16;;;0.35;100.00
6938;BME280;40040;42.706;23.372;2023-01-29T01:00:53;144312.41;;;0.49;100.00
6938;BME280;40040;42.706;23.372;2023-01-29T01:03:21;144309.94;;;0.48;100.00
6938;BME280;40040;42.706;23.372;2023-01-29T01:05:47;144317.25;;;0.51;100.00
6938;BME280;40040;42.706;23.372;2023-01-29T01:08:13;144314.84;;;0.50;100.00
6938;BME280;40040;42.706;23.372;2023-01-29T01:11:00;144327.06;;;0.55;100.00
6938;BME280;40040;42.706;23.372;2023-01-29T01:13:30;144318.50;;;0.51;100.00
6938;BME280;40040;42.706;23.372;2023-01-29T01:15:56;144322.16;;;0.53;100.00
6938;BME280;40040;42.706;23.372;2023-01-29T01:18:23;144324.63;;;0.54;100.00
6938;BME280;40040;42.706;23.372;2023-01-29T01:20:56;144275.69;;;0.34;100.00
6938;BME280;40040;42.706;23.372;2023-01-29T01:23:23;144314.84;;;0.50;100.00
6938;BME280;40040;42.706;23.372;2023-01-29T01:25:50;144308.69;;;0.47;100.00
6938;BME280;40040;42.706;23.372;2023-01-29T01:28:16;144297.72;;;0.43;100.00
6938;BME280;40040;42.706;23.372;2023-01-29T01:30:45;144248.81;;;0.23;100.00
6938;BME280;40040;42.706;23.372;2023-01-29T01:33:11;144279.34;;;0.35;100.00
6938;BME280;40040;42.706;23.372;2023-01-29T01:35:39;144258.56;;;0.27;100.00
6938;BME280;40040;42.706;23.372;2023-01-29T01:38:06;144247.56;;;0.22;100.00
6938;BME280;40040;42.706;23.372;2023-01-29T01:40:33;144300.13;;;0.44;100.00
6938;BME280;40040;42.706;23.372;2023-01-29T01:43:00;144258.56;;;0.27;100.00
6938;BME280;40040;42.706;23.372;2023-01-29T01:45:30;144267.13;;;0.30;100.00
6938;BME280;40040;42.706;23.372;2023-01-29T01:48:02;144300.13;;;0.44;100.00
6938;BME280;40040;42.706;23.372;2023-01-29T01:50:32;144295.28;;;0.42;100.00
6938;BME280;40040;42.706;23.372;2023-01-29T01:53:04;144305.03;;;0.46;100.00
6938;BME280;40040;42.706;23.372;2023-01-29T01:55:34;144300.13;;;0.44;100.00
6938;BME280;40040;42.706;23.372;2023-01-29T01:58:08;144319.72;;;0.52;100.00
6938;BME280;40040;42.706;23.372;2023-01-29T02:00:36;144306.28;;;0.46;100.00
6938;BME280;40040;42.706;23.372;2023-01-29T02:03:06;144301.38;;;0.44;100.00
6938;BME280;40040;42.706;23.372;2023-01-29T02:05:52;144301.38;;;0.44;100.00
6938;BME280;40040;42.706;23.372;2023-01-29T02:08:43;144302.59;;;0.45;100.00
6938;BME280;40040;42.706;23.372;2023-01-29T02:11:29;144313.59;;;0.49;100.00
6938;BME280;40040;42.706;23.372;2023-01-29T02:13:56;144322.16;;;0.53;100.00
6938;BME280;40040;42.706;23.372;2023-01-29T02:16:23;144309.94;;;0.48;100.00
6938;BME280;40040;42.706;23.372;2023-01-29T02:18:51;144319.72;;;0.52;100.00
6938;BME280;40040;42.706;23.372;2023-01-29T02:27:23;144291.56;;;0.40;100.00
6938;BME280;40040;42.706;23.372;2023-01-29T02:30:01;144295.28;;;0.42;100.00
6938;BME280;40040;42.706;23.372;2023-01-29T02:32:37;144312.41;;;0.49;100.00
6938;BME280;40040;42.706;23.372;2023-01-29T02:35:13;144312.41;;;0.49;100.00
6938;BME280;40040;42.706;23.372;2023-01-29T02:38:06;144297.72;;;0.43;100.00
6938;BME280;40040;42.706;23.372;2023-01-29T02:40:41;144295.28;;;0.42;100.00
6938;BME280;40040;42.706;23.372;2023-01-29T02:43:19;144286.72;;;0.38;100.00
6938;BME280;40040;42.706;23.372;2023-01-29T02:45:55;144295.28;;;0.42;100.00
6938;BME280;40040;42.706;23.372;2023-01-29T02:48:29;144290.38;;;0.40;100.00
6938;BME280;40040;42.706;23.372;2023-01-29T02:51:03;144287.91;;;0.39;100.00
6938;BME280;40040;42.706;23.372;2023-01-29T02:53:35;144287.91;;;0.39;100.00
6938;BME280;40040;42.706;23.372;2023-01-29T02:56:09;144296.47;;;0.42;100.00
6938;BME280;40040;42.706;23.372;2023-01-29T02:58:41;144252.47;;;0.24;100.00
6938;BME280;40040;42.706;23.372;2023-01-29T03:01:14;144269.59;;;0.31;100.00
6938;BME280;40040;42.706;23.372;2023-01-29T03:03:45;144287.91;;;0.39;100.00
6938;BME280;40040;42.706;23.372;2023-01-29T03:06:17;144298.94;;;0.43;100.00
6938;BME280;40040;42.706;23.372;2023-01-29T03:08:51;144268.34;;;0.31;100.00
6938;BME280;40040;42.706;23.372;2023-01-29T03:11:20;144261.03;;;0.28;100.00
6938;BME280;40040;42.706;23.372;2023-01-29T03:13:51;144256.13;;;0.26;100.00
6938;BME280;40040;42.706;23.372;2023-01-29T03:16:25;144185.22;;;-0.04;100.00
6938;BME280;40040;42.706;23.372;2023-01-29T03:18:57;144190.06;;;-0.02;100.00
6938;BME280;40040;42.706;23.372;2023-01-29T03:21:31;144194.97;;;0.00;100.00
6938;BME280;40040;42.706;23.372;2023-01-29T03:24:29;144219.41;;;0.11;100.00
6938;BME280;40040;42.706;23.372;2023-01-29T03:27:20;144250.00;;;0.23;100.00
6938;BME280;40040;42.706;23.372;2023-01-29T03:30:09;144246.31;;;0.22;100.00
6938;BME280;40040;42.706;23.372;2023-01-29T03:32:58;144258.56;;;0.27;100.00
6938;BME280;40040;42.706;23.372;2023-01-29T03:35:27;144209.66;;;0.07;100.00
6938;BME280;40040;42.706;23.372;2023-01-29T03:38:00;144268.34;;;0.31;100.00
6938;BME280;40040;42.706;23.372;2023-01-29T03:40:30;144275.69;;;0.34;100.00
6938;BME280;40040;42.706;23.372;2023-01-29T03:43:04;144283.00;;;0.37;100.00
6938;BME280;40040;42.706;23.372;2023-01-29T03:45:40;144283.00;;;0.37;100.00
6938;BME280;40040;42.706;23.372;2023-01-29T03:48:16;144302.59;;;0.45;100.00
6938;BME280;40040;42.706;23.372;2023-01-29T03:50:53;144314.84;;;0.50;100.00
6938;BME280;40040;42.706;23.372;2023-01-29T03:53:25;144301.38;;;0.44;100.00
6938;BME280;40040;42.706;23.372;2023-01-29T03:55:59;144318.50;;;0.51;100.00
6938;BME280;40040;42.706;23.372;2023-01-29T03:58:33;144295.28;;;0.42;100.00
6938;BME280;40040;42.706;23.372;2023-01-29T04:01:05;144275.69;;;0.34;100.00
6938;BME280;40040;42.706;23.372;2023-01-29T04:03:37;144279.34;;;0.35;100.00
6938;BME280;40040;42.706;23.372;2023-01-29T04:06:09;144285.47;;;0.38;100.00
6938;BME280;40040;42.706;23.372;2023-01-29T04:08:43;144258.56;;;0.27;100.00
6938;BME280;40040;42.706;23.372;2023-01-29T04:11:14;144257.38;;;0.26;100.00
6938;BME280;40040;42.706;23.372;2023-01-29T04:13:42;144257.38;;;0.26;100.00
6938;BME280;40040;42.706;23.372;2023-01-29T04:16:14;144214.56;;;0.09;100.00
6938;BME280;40040;42.706;23.372;2023-01-29T04:18:45;144221.88;;;0.12;100.00
6938;BME280;40040;42.706;23.372;2023-01-29T04:21:12;144251.22;;;0.24;100.00
6938;BME280;40040;42.706;23.372;2023-01-29T04:23:39;144241.44;;;0.20;100.00
6938;BME280;40040;42.706;23.372;2023-01-29T04:26:18;144241.44;;;0.20;100.00
6938;BME280;40040;42.706;23.372;2023-01-29T04:29:00;144269.59;;;0.31;100.00
6938;BME280;40040;42.706;23.372;2023-01-29T04:31:35;144276.91;;;0.34;100.00
6938;BME280;40040;42.706;23.372;2023-01-29T04:34:14;144278.16;;;0.35;100.00
6938;BME280;40040;42.706;23.372;2023-01-29T04:36:55;144194.97;;;0.00;100.00
6938;BME280;40040;42.706;23.372;2023-01-29T04:39:29;144250.00;;;0.23;100.00
6938;BME280;40040;42.706;23.372;2023-01-29T04:42:05;144230.44;;;0.15;100.00
6938;BME280;40040;42.706;23.372;2023-01-29T04:44:39;144242.66;;;0.20;100.00
6938;BME280;40040;42.706;23.372;2023-01-29T04:47:17;144253.66;;;0.25;100.00
6938;BME280;40040;42.706;23.372;2023-01-29T04:49:54;144214.56;;;0.09;100.00
6938;BME280;40040;42.706;23.372;2023-01-29T04:52:31;144239.00;;;0.19;100.00
6938;BME280;40040;42.706;23.372;2023-01-29T04:55:04;144219.41;;;0.11;100.00
6938;BME280;40040;42.706;23.372;2023-01-29T04:57:42;144219.41;;;0.11;100.00
6938;BME280;40040;42.706;23.372;2023-01-29T05:00:16;144254.88;;;0.25;100.00
6938;BME280;40040;42.706;23.372;2023-01-29T05:02:45;144246.31;;;0.22;100.00
6938;BME280;40040;42.706;23.372;2023-01-29T05:05:15;144246.31;;;0.22;100.00
6938;BME280;40040;42.706;23.372;2023-01-29T05:07:45;144221.88;;;0.12;100.00
6938;BME280;40040;42.706;23.372;2023-01-29T05:10:14;144216.97;;;0.10;100.00
6938;BME280;40040;42.706;23.372;2023-01-29T05:12:47;144250.00;;;0.23;100.00
6938;BME280;40040;42.706;23.372;2023-01-29T05:15:18;144265.94;;;0.30;100.00
6938;BME280;40040;42.706;23.372;2023-01-29T05:17:45;144263.44;;;0.29;100.00
6938;BME280;40040;42.706;23.372;2023-01-29T05:20:14;144179.06;;;-0.06;100.00
6938;BME280;40040;42.706;23.372;2023-01-29T05:22:41;144280.59;;;0.36;100.00
6938;BME280;40040;42.706;23.372;2023-01-29T05:25:19;144290.38;;;0.40;100.00
6938;BME280;40040;42.706;23.372;2023-01-29T05:27:48;144256.13;;;0.26;100.00
6938;BME280;40040;42.706;23.372;2023-01-29T05:30:35;144262.22;;;0.28;100.00
6938;BME280;40040;42.706;23.372;2023-01-29T05:33:02;144234.09;;;0.17;100.00
6938;BME280;40040;42.706;23.372;2023-01-29T05:35:31;144297.72;;;0.43;100.00
6938;BME280;40040;42.706;23.372;2023-01-29T05:37:59;144298.94;;;0.43;100.00
6938;BME280;40040;42.706;23.372;2023-01-29T05:40:25;144292.81;;;0.41;100.00
6938;BME280;40040;42.706;23.372;2023-01-29T05:42:52;144280.59;;;0.36;100.00
6938;BME280;40040;42.706;23.372;2023-01-29T05:45:19;144278.16;;;0.35;100.00
6938;BME280;40040;42.706;23.372;2023-01-29T05:47:46;144296.47;;;0.42;100.00
6938;BME280;40040;42.706;23.372;2023-01-29T05:50:14;144292.81;;;0.41;100.00
6938;BME280;40040;42.706;23.372;2023-01-29T05:52:42;144262.22;;;0.28;100.00
6938;BME280;40040;42.706;23.372;2023-01-29T05:55:09;144265.94;;;0.30;100.00
6938;BME280;40040;42.706;23.372;2023-01-29T05:57:36;144273.25;;;0.33;100.00
6938;BME280;40040;42.706;23.372;2023-01-29T06:00:04;144274.44;;;0.33;100.00
6938;BME280;40040;42.706;23.372;2023-01-29T06:02:31;144290.38;;;0.40;100.00
6938;BME280;40040;42.706;23.372;2023-01-29T06:04:58;144295.28;;;0.42;100.00
6938;BME280;40040;42.706;23.372;2023-01-29T06:07:25;144272.03;;;0.32;100.00
6938;BME280;40040;42.706;23.372;2023-01-29T06:09:53;144286.72;;;0.38;100.00
6938;BME280;40040;42.706;23.372;2023-01-29T06:12:20;144289.16;;;0.39;100.00
6938;BME280;40040;42.706;23.372;2023-01-29T06:14:47;144297.72;;;0.43;100.00
6938;BME280;40040;42.706;23.372;2023-01-29T06:17:14;144307.50;;;0.47;100.00
6938;BME280;40040;42.706;23.372;2023-01-29T06:19:41;144317.25;;;0.51;100.00
6938;BME280;40040;42.706;23.372;2023-01-29T06:22:08;144302.59;;;0.45;100.00
6938;BME280;40040;42.706;23.372;2023-01-29T06:24:34;144319.72;;;0.52;100.00
6938;BME280;40040;42.706;23.372;2023-01-29T06:27:03;144322.16;;;0.53;100.00
6938;BME280;40040;42.706;23.372;2023-01-29T06:29:30;144335.63;;;0.58;100.00
6938;BME280;40040;42.706;23.372;2023-01-29T06:31:56;144319.72;;;0.52;100.00
6938;BME280;40040;42.706;23.372;2023-01-29T06:34:23;144317.25;;;0.51;100.00
6938;BME280;40040;42.706;23.372;2023-01-29T06:36:50;144309.94;;;0.48;100.00
6938;BME280;40040;42.706;23.372;2023-01-29T06:39:17;144302.59;;;0.45;100.00
6938;BME280;40040;42.706;23.372;2023-01-29T06:41:44;144329.53;;;0.56;100.00
6938;BME280;40040;42.706;23.372;2023-01-29T06:44:12;144324.63;;;0.54;100.00
6938;BME280;40040;42.706;23.372;2023-01-29T06:46:39;144336.88;;;0.59;100.00
6938;BME280;40040;42.706;23.372;2023-01-29T06:49:06;144351.53;;;0.65;100.00
6938;BME280;40040;42.706;23.372;2023-01-29T06:51:32;144344.19;;;0.62;100.00
6938;BME280;40040;42.706;23.372;2023-01-29T06:53:59;144322.16;;;0.53;100.00
6938;BME280;40040;42.706;23.372;2023-01-29T06:56:26;144329.53;;;0.56;100.00
6938;BME280;40040;42.706;23.372;2023-01-29T06:58:53;144297.72;;;0.43;100.00
6938;BME280;40040;42.706;23.372;2023-01-29T07:01:21;144284.25;;;0.37;100.00
6938;BME280;40040;42.706;23.372;2023-01-29T07:03:49;144273.25;;;0.33;100.00
6938;BME280;40040;42.706;23.372;2023-01-29T07:06:16;144283.00;;;0.37;100.00
6938;BME280;40040;42.706;23.372;2023-01-29T07:08:43;144314.84;;;0.50;100.00
6938;BME280;40040;42.706;23.372;2023-01-29T07:11:10;144339.28;;;0.60;100.00
6938;BME280;40040;42.706;23.372;2023-01-29T07:13:38;144307.50;;;0.47;100.00
6938;BME280;40040;42.706;23.372;2023-01-29T07:16:05;144340.53;;;0.60;100.00
6938;BME280;40040;42.706;23.372;2023-01-29T07:18:33;144356.41;;;0.67;100.00
6938;BME280;40040;42.706;23.372;2023-01-29T07:21:03;144368.66;;;0.72;100.00
6938;BME280;40040;42.706;23.372;2023-01-29T07:23:32;144351.53;;;0.65;100.00
6938;BME280;40040;42.706;23.372;2023-01-29T07:26:00;144317.25;;;0.51;100.00
6938;BME280;40040;42.706;23.372;2023-01-29T07:28:28;144356.41;;;0.67;100.00
6938;BME280;40040;42.706;23.372;2023-01-29T07:30:56;144363.75;;;0.70;100.00
6938;BME280;40040;42.706;23.372;2023-01-29T07:33:23;144356.41;;;0.67;100.00
6938;BME280;40040;42.706;23.372;2023-01-29T07:35:52;144366.22;;;0.71;100.00
6938;BME280;40040;42.706;23.372;2023-01-29T07:38:19;144373.56;;;0.74;100.00
6938;BME280;40040;42.706;23.372;2023-01-29T07:40:46;144385.78;;;0.79;100.00
6938;BME280;40040;42.706;23.372;2023-01-29T07:43:13;144387.03;;;0.79;100.00
6938;BME280;40040;42.706;23.372;2023-01-29T07:45:40;144401.72;;;0.85;100.00
6938;BME280;40040;42.706;23.372;2023-01-29T07:48:10;144378.47;;;0.76;100.00
6938;BME280;40040;42.706;23.372;2023-01-29T07:50:38;144363.75;;;0.70;100.00
6938;BME280;40040;42.706;23.372;2023-01-29T07:53:11;144413.97;;;0.90;100.00
6938;BME280;40040;42.706;23.372;2023-01-29T07:55:38;144422.53;;;0.94;100.00
6938;BME280;40040;42.706;23.372;2023-01-29T07:58:05;144385.78;;;0.79;100.00
6938;BME280;40040;42.706;23.372;2023-01-29T08:00:33;144394.34;;;0.82;100.00
6938;BME280;40040;42.706;23.372;2023-01-29T08:03:03;144410.28;;;0.89;100.00
6938;BME280;40040;42.706;23.372;2023-01-29T08:05:30;144402.91;;;0.86;100.00
6938;BME280;40040;42.706;23.372;2023-01-29T08:07:57;144417.63;;;0.92;100.00
6938;BME280;40040;42.706;23.372;2023-01-29T08:10:26;144426.19;;;0.95;100.00
6938;BME280;40040;42.706;23.372;2023-01-29T08:12:54;144415.16;;;0.91;100.00
6938;BME280;40040;42.706;23.372;2023-01-29T08:15:21;144442.09;;;1.02;100.00
6938;BME280;40040;42.706;23.372;2023-01-29T08:17:48;144453.09;;;1.06;100.00
6938;BME280;40040;42.706;23.372;2023-01-29T08:20:15;144439.66;;;1.01;100.00
6938;BME280;40040;42.706;23.372;2023-01-29T08:22:42;144429.88;;;0.97;100.00
6938;BME280;40040;42.706;23.372;2023-01-29T08:25:09;144424.97;;;0.95;100.00
6938;BME280;40040;42.706;23.372;2023-01-29T08:27:38;144424.97;;;0.95;100.00
6938;BME280;40040;42.706;23.372;2023-01-29T08:30:06;144416.38;;;0.91;100.00
6938;BME280;40040;42.706;23.372;2023-01-29T08:32:33;144424.97;;;0.95;100.00
6938;BME280;40040;42.706;23.372;2023-01-29T08:35:00;144434.75;;;0.99;100.00
6938;BME280;40040;42.706;23.372;2023-01-29T08:37:27;144434.75;;;0.99;100.00
6938;BME280;40040;42.706;23.372;2023-01-29T08:39:54;144429.88;;;0.97;100.00
6938;BME280;40040;42.706;23.372;2023-01-29T08:42:20;144429.88;;;0.97;100.00
6938;BME280;40040;42.706;23.372;2023-01-29T08:44:49;144459.22;;;1.09;100.00
6938;BME280;40040;42.706;23.372;2023-01-29T08:47:15;144478.81;;;1.17;100.00
6938;BME280;40040;42.706;23.372;2023-01-29T08:49:42;144431.09;;;0.97;100.00
6938;BME280;40040;42.706;23.372;2023-01-29T08:52:09;144462.91;;;1.10;100.00
6938;BME280;40040;42.706;23.372;2023-01-29T08:54:36;144444.53;;;1.03;100.00
6938;BME280;40040;42.706;23.372;2023-01-29T08:57:03;144442.09;;;1.02;100.00
6938;BME280;40040;42.706;23.372;2023-01-29T08:59:29;144439.66;;;1.01;100.00
6938;BME280;40040;42.706;23.372;2023-01-29T09:01:58;144465.38;;;1.11;100.00
6938;BME280;40040;42.706;23.372;2023-01-29T09:04:24;144467.81;;;1.12;100.00
6938;BME280;40040;42.706;23.372;2023-01-29T09:06:51;144473.94;;;1.15;100.00
6938;BME280;40040;42.706;23.372;2023-01-29T09:09:18;144437.19;;;1.00;100.00
6938;BME280;40040;42.706;23.372;2023-01-29T09:11:45;144434.75;;;0.99;100.00
6938;BME280;40040;42.706;23.372;2023-01-29T09:14:12;144476.38;;;1.16;100.00
6938;BME280;40040;42.706;23.372;2023-01-29T09:16:39;144495.94;;;1.24;100.00
6938;BME280;40040;42.706;23.372;2023-01-29T09:19:07;144500.84;;;1.26;100.00
6938;BME280;40040;42.706;23.372;2023-01-29T09:21:34;144508.19;;;1.29;100.00
6938;BME280;40040;42.706;23.372;2023-01-29T09:24:01;144498.41;;;1.25;100.00
6938;BME280;40040;42.706;23.372;2023-01-29T09:26:28;144529.03;;;1.38;100.00
6938;BME280;40040;42.706;23.372;2023-01-29T09:28:55;144461.66;;;1.10;100.00
6938;BME280;40040;42.706;23.372;2023-01-29T09:31:22;144478.81;;;1.17;100.00
6938;BME280;40040;42.706;23.372;2023-01-29T09:33:49;144471.47;;;1.14;100.00
6938;BME280;40040;42.706;23.372;2023-01-29T09:36:17;144464.13;;;1.11;100.00
6938;BME280;40040;42.706;23.372;2023-01-29T09:38:44;144473.94;;;1.15;100.00
6938;BME280;40040;42.706;23.372;2023-01-29T09:41:21;144478.81;;;1.17;100.00
6938;BME280;40040;42.706;23.372;2023-01-29T09:43:57;144439.66;;;1.01;100.00
6938;BME280;40040;42.706;23.372;2023-01-29T09:46:32;144488.59;;;1.21;100.00
6938;BME280;40040;42.706;23.372;2023-01-29T09:49:06;144470.22;;;1.13;100.00
6938;BME280;40040;42.706;23.372;2023-01-29T09:51:40;144462.91;;;1.10;100.00
6938;BME280;40040;42.706;23.372;2023-01-29T09:54:14;144475.13;;;1.15;100.00
6938;BME280;40040;42.706;23.372;2023-01-29T09:56:42;144489.84;;;1.22;100.00
6938;BME280;40040;42.706;23.372;2023-01-29T09:59:12;144472.72;;;1.14;100.00
6938;BME280;40040;42.706;23.372;2023-01-29T10:01:48;144506.97;;;1.29;100.00
6938;BME280;40040;42.706;23.372;2023-01-29T10:04:42;144464.13;;;1.11;100.00
6938;BME280;40040;42.706;23.372;2023-01-29T10:07:36;144525.31;;;1.36;100.00
6938;BME280;40040;42.706;23.372;2023-01-29T10:10:20;144516.75;;;1.33;100.00
6938;BME280;40040;42.706;23.372;2023-01-29T10:13:00;144510.66;;;1.30;100.00
6938;BME280;40040;42.706;23.372;2023-01-29T10:15:37;144513.09;;;1.31;100.00
6938;BME280;40040;42.706;23.372;2023-01-29T10:18:30;144522.88;;;1.35;100.00
6938;BME280;40040;42.706;23.372;2023-01-29T10:21:13;144513.09;;;1.31;100.00
6938;BME280;40040;42.706;23.372;2023-01-29T10:23:49;144488.59;;;1.21;100.00
6938;BME280;40040;42.706;23.372;2023-01-29T10:26:20;144520.47;;;1.34;100.00
6938;BME280;40040;42.706;23.372;2023-01-29T10:28:51;144500.84;;;1.26;100.00
6938;BME280;40040;42.706;23.372;2023-01-29T10:31:24;144456.81;;;1.08;100.00
6938;BME280;40040;42.706;23.372;2023-01-29T10:33:59;144445.75;;;1.03;100.00
6938;BME280;40040;42.706;23.372;2023-01-29T10:36:32;144503.31;;;1.27;100.00
6938;BME280;40040;42.706;23.372;2023-01-29T10:39:01;144508.19;;;1.29;100.00
6938;BME280;40040;42.706;23.372;2023-01-29T10:44:36;144498.41;;;1.25;100.00
6938;BME280;40040;42.706;23.372;2023-01-29T10:50:07;144440.84;;;1.01;100.00
6938;BME280;40040;42.706;23.372;2023-01-29T10:52:48;144437.19;;;1.00;100.00
6938;BME280;40040;42.706;23.372;2023-01-29T10:55:28;144477.63;;;1.17;100.00
6938;BME280;40040;42.706;23.372;2023-01-29T10:58:06;144495.94;;;1.24;100.00
6938;BME280;40040;42.706;23.372;2023-01-29T11:00:38;144493.50;;;1.23;100.00
6938;BME280;40040;42.706;23.372;2023-01-29T11:03:14;144500.84;;;1.26;100.00
6938;BME280;40040;42.706;23.372;2023-01-29T11:05:45;144509.41;;;1.30;100.00
6938;BME280;40040;42.706;23.372;2023-01-29T11:08:21;144503.31;;;1.27;100.00
6938;BME280;40040;42.706;23.372;2023-01-29T11:10:59;144505.75;;;1.28;100.00
6938;BME280;40040;42.706;23.372;2023-01-29T11:13:31;144513.09;;;1.31;100.00
6938;BME280;40040;42.706;23.372;2023-01-29T11:16:00;144431.09;;;0.97;100.00
6938;BME280;40040;42.706;23.372;2023-01-29T11:18:47;144482.50;;;1.19;100.00
6938;BME280;40040;42.706;23.372;2023-01-29T11:21:15;144483.72;;;1.19;100.00
6938;BME280;40040;42.706;23.372;2023-01-29T11:23:41;144515.56;;;1.32;100.00
6938;BME280;40040;42.706;23.372;2023-01-29T11:26:12;144529.03;;;1.38;100.00
6938;BME280;40040;42.706;23.372;2023-01-29T11:28:44;144553.50;;;1.48;100.00
6938;BME280;40040;42.706;23.372;2023-01-29T11:31:20;144502.09;;;1.27;100.00
6938;BME280;40040;42.706;23.372;2023-01-29T11:33:47;144564.50;;;1.52;100.00
6938;BME280;40040;42.706;23.372;2023-01-29T11:36:23;144566.97;;;1.53;100.00
6938;BME280;40040;42.706;23.372;2023-01-29T11:39:09;144562.09;;;1.51;100.00
6938;BME280;40040;42.706;23.372;2023-01-29T11:41:47;144518.00;;;1.33;100.00
6938;BME280;40040;42.706;23.372;2023-01-29T11:44:25;144557.19;;;1.49;100.00
6938;BME280;40040;42.706;23.372;2023-01-29T11:46:53;144530.22;;;1.38;100.00
6938;BME280;40040;42.706;23.372;2023-01-29T11:49:31;144513.09;;;1.31;100.00
6938;BME280;40040;42.706;23.372;2023-01-29T11:52:01;144554.75;;;1.48;100.00
6938;BME280;40040;42.706;23.372;2023-01-29T11:54:33;144555.94;;;1.49;100.00
6938;BME280;40040;42.706;23.372;2023-01-29T11:57:03;144582.91;;;1.60;100.00
6938;BME280;40040;42.706;23.372;2023-01-29T11:59:39;144574.31;;;1.56;100.00
6938;BME280;40040;42.706;23.372;2023-01-29T12:02:27;144593.91;;;1.64;100.00
6938;BME280;40040;42.706;23.372;2023-01-29T12:04:57;144603.72;;;1.68;100.00
6938;BME280;40040;42.706;23.372;2023-01-29T12:07:25;144613.53;;;1.72;100.00
6938;BME280;40040;42.706;23.372;2023-01-29T12:09:55;144593.91;;;1.64;100.00
6938;BME280;40040;42.706;23.372;2023-01-29T12:12:29;144633.09;;;1.80;100.00
6938;BME280;40040;42.706;23.372;2023-01-29T12:15:05;144641.69;;;1.84;100.00
6938;BME280;40040;42.706;23.372;2023-01-29T12:17:35;144646.56;;;1.86;100.00
6938;BME280;40040;42.706;23.372;2023-01-29T12:20:07;144661.25;;;1.92;100.00
6938;BME280;40040;42.706;23.372;2023-01-29T12:22:41;144684.53;;;2.01;100.00
6938;BME280;40040;42.706;23.372;2023-01-29T12:25:19;144674.72;;;1.97;100.00
6938;BME280;40040;42.706;23.372;2023-01-29T12:27:53;144669.81;;;1.95;100.00
6938;BME280;40040;42.706;23.372;2023-01-29T12:30:27;144657.59;;;1.90;100.00
6938;BME280;40040;42.706;23.372;2023-01-29T12:33:00;144631.88;;;1.80;100.00
6938;BME280;40040;42.706;23.372;2023-01-29T12:35:30;144680.88;;;2.00;100.00
6938;BME280;40040;42.706;23.372;2023-01-29T12:38:02;144660.06;;;1.91;100.00
6938;BME280;40040;42.706;23.372;2023-01-29T12:40:36;144673.53;;;1.97;100.00
6938;BME280;40040;42.706;23.372;2023-01-29T12:43:11;144679.66;;;1.99;100.00
6938;BME280;40040;42.706;23.372;2023-01-29T12:45:40;144661.25;;;1.92;100.00
6938;BME280;40040;42.706;23.372;2023-01-29T12:48:12;144696.78;;;2.06;100.00
6938;BME280;40040;42.706;23.372;2023-01-29T12:50:40;144689.47;;;2.03;100.00
6938;BME280;40040;42.706;23.372;2023-01-29T12:53:24;144711.50;;;2.12;100.00
6938;BME280;40040;42.706;23.372;2023-01-29T12:55:54;144739.69;;;2.24;100.00
6938;BME280;40040;42.706;23.372;2023-01-29T12:58:28;144743.34;;;2.25;100.00
6938;BME280;40040;42.706;23.372;2023-01-29T13:01:02;144726.19;;;2.18;100.00
6938;BME280;40040;42.706;23.372;2023-01-29T13:03:34;144739.69;;;2.24;100.00
6938;BME280;40040;42.706;23.372;2023-01-29T13:06:09;144717.63;;;2.15;100.00
6938;BME280;40040;42.706;23.372;2023-01-29T13:08:40;144721.28;;;2.16;100.00
6938;BME280;40040;42.706;23.372;2023-01-29T13:11:13;144726.19;;;2.18;100.00
6938;BME280;40040;42.706;23.372;2023-01-29T13:13:48;144711.50;;;2.12;100.00
6938;BME280;40040;42.706;23.372;2023-01-29T13:16:19;144707.84;;;2.11;100.00
6938;BME280;40040;42.706;23.372;2023-01-29T13:18:50;144720.09;;;2.16;100.00
6938;BME280;40040;42.706;23.372;2023-01-29T13:21:22;144728.66;;;2.19;100.00
6938;BME280;40040;42.706;23.372;2023-01-29T13:23:52;144742.09;;;2.25;100.00